Time;durP1;ratioP1;P1;durP2;ratioP2;P2;SDS_P1;SDS_P2;PMS_P1;PMS_P2;Temp;Humidity;BMP_temperature;BMP_pressure;BME280_temperature;BME280_humidity;BME280_pressure;Samples;Min_cycle;Max_cycle;Signal;HPM_P1;HPM_P2
2022/12/10 00:01:30;;;;;;;28.45;12.90;;;;;;;1.93;100.00;99745.56;5025107;28;20484;-75
2022/12/10 00:03:55;;;;;;;28.20;13.88;;;;;;;1.91;100.00;99750.78;5018501;28;20057;-75
2022/12/10 00:06:24;;;;;;;27.02;12.60;;;;;;;1.95;100.00;99738.69;5024181;28;20065;-75
2022/12/10 00:08:50;;;;;;;27.02;10.90;;;;;;;1.81;100.00;99740.16;5021371;28;20037;-75
2022/12/10 00:11:17;;;;;;;30.80;12.88;;;;;;;1.82;100.00;99741.94;5021377;28;20112;-75
2022/12/10 00:13:44;;;;;;;27.77;12.45;;;;;;;1.82;100.00;99739.31;5024931;28;20392;-75
2022/12/10 00:16:12;;;;;;;26.10;12.18;;;;;;;1.84;100.00;99742.84;5017895;28;20034;-75
2022/12/10 00:18:38;;;;;;;30.17;12.85;;;;;;;1.85;100.00;99748.03;5023692;28;20099;-75
2022/12/10 00:21:14;;;;;;;24.77;12.43;;;;;;;1.92;100.00;99747.31;5023426;28;20030;-75
2022/12/10 00:23:40;;;;;;;25.80;11.35;;;;;;;1.89;100.00;99751.59;5021403;28;20527;-75
2022/12/10 00:26:13;;;;;;;26.83;11.85;;;;;;;1.84;100.00;99754.13;5023900;28;20033;-75
2022/12/10 00:28:40;;;;;;;24.17;11.18;;;;;;;1.83;100.00;99751.47;5023785;28;20026;-75
2022/12/10 00:31:11;;;;;;;25.50;12.90;;;;;;;1.84;100.00;99755.84;5020487;28;20104;-75
2022/12/10 00:33:37;;;;;;;30.13;13.30;;;;;;;1.89;100.00;99756.81;5001132;28;20092;-75
2022/12/10 00:36:12;;;;;;;26.92;11.93;;;;;;;1.94;100.00;99770.75;5005402;28;20033;-75
2022/12/10 00:38:38;;;;;;;26.95;12.57;;;;;;;1.96;100.00;99763.84;4986217;28;20045;-75
2022/12/10 00:41:04;;;;;;;25.35;11.75;;;;;;;1.96;100.00;99763.84;5012613;28;20046;-76
2022/12/10 00:43:31;;;;;;;27.70;11.68;;;;;;;1.96;100.00;99761.22;4990062;28;20032;-75
2022/12/10 00:45:57;;;;;;;26.65;11.27;;;;;;;1.98;100.00;99759.53;5022396;28;20021;-75
2022/12/10 00:48:23;;;;;;;23.70;11.15;;;;;;;2.05;100.00;99756.19;5021643;28;20041;-74
2022/12/10 00:51:03;;;;;;;26.00;12.68;;;;;;;2.06;100.00;99754.44;5003972;28;20029;-74
2022/12/10 00:53:30;;;;;;;26.25;11.32;;;;;;;2.05;100.00;99758.78;5003417;28;20109;-75
2022/12/10 00:55:56;;;;;;;27.95;11.90;;;;;;;1.95;100.00;99757.75;5021304;28;20092;-75
2022/12/10 00:58:22;;;;;;;24.90;10.73;;;;;;;1.93;100.00;99754.25;5022500;28;20049;-75
2022/12/10 01:00:48;;;;;;;24.70;12.27;;;;;;;1.95;100.00;99759.50;5020993;28;20040;-75
2022/12/10 01:03:13;;;;;;;26.90;12.32;;;;;;;1.94;100.00;99757.75;5022476;28;20048;-75
2022/12/10 01:05:39;;;;;;;23.98;10.77;;;;;;;1.94;100.00;99757.75;5021500;28;20119;-75
2022/12/10 01:08:04;;;;;;;24.58;11.30;;;;;;;1.98;100.00;99757.81;5022079;28;20042;-75
2022/12/10 01:10:30;;;;;;;24.70;11.38;;;;;;;1.97;100.00;99755.19;5020628;28;20056;-75
2022/12/10 01:12:55;;;;;;;27.00;13.73;;;;;;;1.85;100.00;99754.97;5021196;28;20029;-75
2022/12/10 01:15:22;;;;;;;26.75;12.05;;;;;;;1.90;100.00;99766.34;5022287;28;20537;-75
2022/12/10 01:17:48;;;;;;;27.15;13.18;;;;;;;1.90;100.00;99758.53;5004203;28;20034;-75
2022/12/10 01:20:13;;;;;;;27.25;11.85;;;;;;;1.86;100.00;99759.31;5021476;28;20087;-75
2022/12/10 01:22:38;;;;;;;26.13;12.73;;;;;;;1.85;100.00;99757.59;5021798;28;20128;-75
2022/12/10 01:25:04;;;;;;;30.73;14.02;;;;;;;1.81;100.00;99764.47;5021458;28;20047;-75
2022/12/10 01:27:30;;;;;;;26.23;12.27;;;;;;;1.75;100.00;99759.16;5022223;28;20030;-75
2022/12/10 01:29:55;;;;;;;29.17;12.55;;;;;;;1.71;100.00;99760.84;5018940;28;20034;-74
2022/12/10 01:32:21;;;;;;;28.10;12.27;;;;;;;1.67;100.00;99755.53;5022248;28;20107;-75
2022/12/10 01:34:46;;;;;;;30.45;14.77;;;;;;;1.68;100.00;99755.59;5004396;28;20440;-75
2022/12/10 01:37:11;;;;;;;28.25;12.40;;;;;;;1.65;100.00;99752.94;5021897;28;20044;-75
2022/12/10 01:39:37;;;;;;;23.13;11.20;;;;;;;1.69;100.00;99765.13;5019784;28;20045;-75
2022/12/10 01:42:03;;;;;;;26.08;12.90;;;;;;;1.69;100.00;99767.72;5021108;28;20045;-75
2022/12/10 01:44:28;;;;;;;26.80;12.23;;;;;;;1.69;100.00;99765.13;5020444;28;20072;-75
2022/12/10 01:46:56;;;;;;;25.60;11.45;;;;;;;1.68;100.00;99766.00;5023008;28;20043;-75
2022/12/10 01:49:26;;;;;;;27.65;12.32;;;;;;;1.69;100.00;99767.72;5004146;28;20033;-75
2022/12/10 01:51:55;;;;;;;29.15;12.80;;;;;;;1.70;100.00;99766.91;5019730;28;20044;-75
2022/12/10 01:54:27;;;;;;;26.88;12.23;;;;;;;1.77;100.00;99767.00;5019466;28;20209;-75
2022/12/10 01:56:58;;;;;;;25.25;11.40;;;;;;;1.75;100.00;99770.41;5015865;28;20492;-75
2022/12/10 01:59:25;;;;;;;28.23;12.82;;;;;;;1.82;100.00;99770.56;5021032;28;20033;-75
2022/12/10 02:02:17;;;;;;;30.10;13.02;;;;;;;1.84;100.00;99769.72;5022591;28;20086;-75
2022/12/10 02:04:59;;;;;;;31.50;13.30;;;;;;;1.84;100.00;99768.84;5022363;28;20033;-75
2022/12/10 02:07:42;;;;;;;27.58;12.32;;;;;;;1.84;100.00;99763.66;5020008;28;20322;-76
2022/12/10 02:10:37;;;;;;;28.00;13.60;;;;;;;1.80;100.00;99761.84;5016338;28;20065;-74
2022/12/10 02:13:11;;;;;;;28.17;11.70;;;;;;;1.78;100.00;99767.00;5018851;28;20396;-76
2022/12/10 02:15:44;;;;;;;27.33;12.85;;;;;;;1.83;100.00;99767.09;5016977;28;20488;-75
2022/12/10 02:18:14;;;;;;;27.42;11.80;;;;;;;1.82;100.00;99765.34;5018054;28;20037;-75
2022/12/10 02:20:47;;;;;;;26.20;12.65;;;;;;;1.86;100.00;99761.94;4999152;28;20038;-75
2022/12/10 02:23:19;;;;;;;28.52;12.48;;;;;;;1.86;100.00;99761.94;5019095;28;20042;-75
2022/12/10 02:25:51;;;;;;;29.10;14.32;;;;;;;1.87;100.00;99758.50;5019560;28;20652;-75
2022/12/10 02:28:54;;;;;;;25.98;12.18;;;;;;;1.90;100.00;99763.75;5002173;28;20042;-75
2022/12/10 02:31:25;;;;;;;29.02;13.07;;;;;;;1.89;100.00;99757.66;5017835;28;20116;-75
2022/12/10 02:33:57;;;;;;;28.58;13.10;;;;;;;1.90;100.00;99763.75;5018638;28;20518;-75
2022/12/10 02:36:27;;;;;;;25.65;11.60;;;;;;;1.95;100.00;99767.28;5013308;28;20034;-75
2022/12/10 02:38:55;;;;;;;30.30;13.60;;;;;;;1.94;100.00;99762.97;5000165;28;20030;-76
2022/12/10 02:41:31;;;;;;;29.48;13.88;;;;;;;1.93;100.00;99758.59;5026349;28;20072;-75
2022/12/10 02:44:00;;;;;;;31.13;13.02;;;;;;;1.92;100.00;99767.25;5020603;28;20030;-75
2022/12/10 02:46:30;;;;;;;26.63;12.35;;;;;;;1.89;100.00;99759.41;5023097;28;20095;-75
2022/12/10 02:49:01;;;;;;;26.35;12.20;;;;;;;1.86;100.00;99767.13;5002525;28;20556;-75
2022/12/10 02:51:28;;;;;;;28.45;12.25;;;;;;;1.84;100.00;99761.06;5024400;28;20029;-75
2022/12/10 02:54:03;;;;;;;26.00;12.75;;;;;;;1.86;100.00;99759.31;5007071;28;20079;-75
2022/12/10 02:56:49;;;;;;;28.58;12.32;;;;;;;1.91;100.00;99755.06;5021580;28;20030;-75
2022/12/10 02:59:41;;;;;;;29.75;12.73;;;;;;;1.95;100.00;99759.50;5023429;28;20042;-75
2022/12/10 03:02:31;;;;;;;28.13;12.60;;;;;;;1.87;100.00;99759.38;5005336;28;20038;-75
2022/12/10 03:05:13;;;;;;;30.65;13.38;;;;;;;1.86;100.00;99769.72;5024937;28;20492;-76
2022/12/10 03:08:09;;;;;;;30.55;13.27;;;;;;;1.82;100.00;99761.00;5025216;28;20045;-75
2022/12/10 03:10:58;;;;;;;26.85;11.88;;;;;;;1.84;100.00;99774.06;5022234;28;20029;-75
2022/12/10 03:13:29;;;;;;;27.15;12.82;;;;;;;1.83;100.00;99774.88;5025994;28;20087;-76
2022/12/10 03:15:55;;;;;;;27.90;11.60;;;;;;;1.83;100.00;99772.28;5002704;28;20038;-75
2022/12/10 03:18:25;;;;;;;28.77;12.88;;;;;;;1.90;100.00;99774.16;5024540;28;20091;-76
2022/12/10 03:20:53;;;;;;;30.17;13.45;;;;;;;1.85;100.00;99771.47;5021842;28;20041;-75
2022/12/10 03:23:19;;;;;;;35.22;14.82;;;;;;;1.79;100.00;99771.38;5022165;28;20065;-75
2022/12/10 03:25:48;;;;;;;30.23;12.05;;;;;;;1.77;100.00;99762.66;5025171;28;20875;-75
2022/12/10 03:28:15;;;;;;;25.15;11.95;;;;;;;1.82;100.00;99765.34;5024011;28;20045;-74
2022/12/10 03:30:42;;;;;;;29.25;13.57;;;;;;;1.81;100.00;99768.78;5023483;28;20121;-75
2022/12/10 03:33:08;;;;;;;32.58;13.45;;;;;;;1.79;100.00;99765.31;5025660;28;20081;-75
2022/12/10 03:35:34;;;;;;;34.13;13.18;;;;;;;1.79;100.00;99776.56;5022159;28;20465;-75
2022/12/10 03:38:00;;;;;;;29.92;12.38;;;;;;;1.81;100.00;99773.97;5024917;28;20522;-75
2022/12/10 03:40:26;;;;;;;31.38;12.75;;;;;;;1.77;100.00;99772.19;5021511;28;20042;-75
2022/12/10 03:42:51;;;;;;;29.35;13.30;;;;;;;1.72;100.00;99774.72;5023601;28;20068;-75
2022/12/10 03:45:16;;;;;;;28.40;13.07;;;;;;;1.72;100.00;99772.97;5024532;28;20037;-75
2022/12/10 03:47:42;;;;;;;39.63;15.40;;;;;;;1.73;100.00;99776.47;5022156;28;20026;-75
2022/12/10 03:50:08;;;;;;;30.10;12.55;;;;;;;1.67;100.00;99773.75;5020055;28;20526;-75
2022/12/10 03:52:34;;;;;;;34.92;13.32;;;;;;;1.64;100.00;99771.97;5024857;28;20041;-75
2022/12/10 03:54:59;;;;;;;32.05;12.50;;;;;;;1.67;100.00;99772.03;5023157;28;20037;-75
2022/12/10 03:57:25;;;;;;;31.08;12.45;;;;;;;1.59;100.00;99772.75;5023450;28;20037;-75
2022/12/10 03:59:50;;;;;;;32.58;12.57;;;;;;;1.65;100.00;99771.16;5024368;28;20033;-74
2022/12/10 04:02:15;;;;;;;28.40;11.73;;;;;;;1.65;100.00;99771.16;5016337;28;20041;-75
2022/12/10 04:04:41;;;;;;;37.13;13.45;;;;;;;1.61;100.00;99771.94;5024130;28;20037;-75
2022/12/10 04:07:06;;;;;;;31.65;13.55;;;;;;;1.60;100.00;99775.38;5018011;28;20037;-75
2022/12/10 04:09:32;;;;;;;32.47;12.18;;;;;;;1.58;100.00;99777.06;5019183;28;20029;-75
2022/12/10 04:11:58;;;;;;;27.98;12.10;;;;;;;1.62;100.00;99784.06;5023092;28;20510;-75
2022/12/10 04:17:09;;;;;;;29.73;11.32;;;;;;;1.71;100.00;99779.03;5020787;28;20041;-75
2022/12/10 04:19:35;;;;;;;33.90;14.93;;;;;;;1.74;100.00;99781.69;5020787;28;20037;-74
2022/12/10 04:27:39;;;;;;;30.95;13.27;;;;;;;1.67;100.00;99777.22;5017593;28;20571;-76
2022/12/10 04:30:08;;;;;;;32.08;14.93;;;;;;;1.72;100.00;99770.38;5022868;28;20484;-76
2022/12/10 04:32:33;;;;;;;33.60;12.77;;;;;;;1.70;100.00;99771.19;5024067;28;20535;-75
2022/12/10 04:34:59;;;;;;;31.70;12.38;;;;;;;1.69;100.00;99774.66;5023354;28;20116;-75
2022/12/10 04:37:25;;;;;;;33.38;13.38;;;;;;;1.68;100.00;99771.19;5018548;28;20029;-75
2022/12/10 04:39:51;;;;;;;36.58;14.95;;;;;;;1.65;100.00;99773.75;5020642;28;20080;-75
2022/12/10 04:42:17;;;;;;;32.40;12.75;;;;;;;1.68;100.00;99776.41;5024240;28;20073;-76
2022/12/10 04:44:42;;;;;;;34.17;12.93;;;;;;;1.67;100.00;99773.75;5021421;28;20467;-75
2022/12/10 04:47:09;;;;;;;35.17;14.52;;;;;;;1.69;100.00;99775.53;5023729;28;20034;-75
2022/12/10 04:49:34;;;;;;;30.42;12.88;;;;;;;1.71;100.00;99775.56;5022180;28;20477;-75
2022/12/10 04:52:00;;;;;;;34.35;12.55;;;;;;;1.70;100.00;99776.41;5023788;28;20040;-75
2022/12/10 04:54:26;;;;;;;35.17;14.43;;;;;;;1.72;100.00;99772.97;5023312;28;20029;-75
2022/12/10 04:56:53;;;;;;;29.55;12.27;;;;;;;1.74;100.00;99773.03;5002974;28;20030;-75
2022/12/10 04:59:18;;;;;;;32.45;12.10;;;;;;;1.74;100.00;99778.22;5016439;28;20546;-75
2022/12/10 05:01:44;;;;;;;29.70;11.52;;;;;;;1.77;100.00;99777.41;5021181;28;20064;-75
2022/12/10 05:04:11;;;;;;;33.13;13.77;;;;;;;1.74;100.00;99783.44;5022747;28;20037;-75
2022/12/10 05:06:37;;;;;;;31.55;13.27;;;;;;;1.63;100.00;99771.97;5022661;28;20037;-75
2022/12/10 05:09:03;;;;;;;32.15;12.82;;;;;;;1.65;100.00;99783.25;5018882;28;20477;-75
2022/12/10 05:11:30;;;;;;;32.58;13.88;;;;;;;1.57;100.00;99782.25;5023949;28;20041;-75
2022/12/10 05:13:57;;;;;;;35.80;14.07;;;;;;;1.54;100.00;99785.66;5021078;28;20420;-75
2022/12/10 05:16:25;;;;;;;30.35;12.48;;;;;;;1.59;100.00;99778.81;5022390;28;20046;-75
2022/12/10 05:18:51;;;;;;;30.45;12.43;;;;;;;1.59;100.00;99777.94;5022584;28;20033;-75
2022/12/10 05:21:19;;;;;;;30.83;12.75;;;;;;;1.59;100.00;99775.34;5021054;28;20040;-75
2022/12/10 05:23:47;;;;;;;34.95;13.95;;;;;;;1.60;100.00;99775.38;5023605;28;20038;-75
2022/12/10 05:26:22;;;;;;;28.85;12.18;;;;;;;1.61;100.00;99777.13;5021178;28;20044;-75
2022/12/10 05:28:51;;;;;;;32.45;13.20;;;;;;;1.54;100.00;99773.53;5020894;28;20112;-75
2022/12/10 05:31:22;;;;;;;33.47;13.38;;;;;;;1.48;100.00;99780.34;5023580;28;20083;-75
2022/12/10 05:33:49;;;;;;;33.65;13.98;;;;;;;1.44;100.00;99784.63;5020762;28;20029;-75
2022/12/10 05:36:16;;;;;;;37.10;14.30;;;;;;;1.43;100.00;99780.25;5004498;28;20041;-75
2022/12/10 05:38:42;;;;;;;31.85;12.48;;;;;;;1.41;100.00;99786.28;5020177;28;20447;-75
2022/12/10 05:41:16;;;;;;;28.30;12.35;;;;;;;1.42;100.00;99775.94;5020016;28;20053;-75
2022/12/10 05:43:43;;;;;;;27.52;10.98;;;;;;;1.41;100.00;99781.09;5021822;28;20069;-75
2022/12/10 05:46:16;;;;;;;28.85;11.48;;;;;;;1.39;100.00;99782.78;5022064;28;20041;-75
2022/12/10 05:48:41;;;;;;;23.58;9.35;;;;;;;1.37;100.00;99780.16;5016055;28;20042;-75
2022/12/10 05:51:09;;;;;;;28.25;12.25;;;;;;;1.39;100.00;99785.38;5021382;28;20049;-75
2022/12/10 05:53:35;;;;;;;32.10;11.27;;;;;;;1.40;100.00;99792.34;5020865;28;20112;-76
2022/12/10 05:56:05;;;;;;;24.75;10.85;;;;;;;1.38;100.00;99796.63;5022609;28;20050;-75
2022/12/10 05:58:31;;;;;;;30.20;12.70;;;;;;;1.38;100.00;99800.09;5023026;28;20033;-75
2022/12/10 06:00:57;;;;;;;27.95;10.85;;;;;;;1.41;100.00;99796.69;5018675;28;20044;-75
2022/12/10 06:03:23;;;;;;;27.35;11.00;;;;;;;1.34;100.00;99795.72;5019425;28;20037;-76
2022/12/10 06:05:49;;;;;;;22.60;10.25;;;;;;;1.25;100.00;99793.78;5020725;28;20383;-75
2022/12/10 06:08:14;;;;;;;28.23;10.70;;;;;;;1.29;100.00;99789.53;5016524;28;20040;-76
2022/12/10 06:10:39;;;;;;;22.42;10.18;;;;;;;1.28;100.00;99798.16;5019781;28;20040;-76
2022/12/10 06:13:05;;;;;;;23.10;9.43;;;;;;;1.33;100.00;99800.88;5019345;28;20117;-76
2022/12/10 06:15:31;;;;;;;24.10;10.55;;;;;;;1.29;100.00;99790.41;5022688;28;20029;-75
2022/12/10 06:17:57;;;;;;;24.48;10.77;;;;;;;1.28;100.00;99793.88;5020482;28;20045;-76
2022/12/10 06:20:23;;;;;;;24.13;10.25;;;;;;;1.29;100.00;99799.94;5003823;28;20033;-75
2022/12/10 06:22:48;;;;;;;21.90;10.25;;;;;;;1.24;100.00;99797.25;5021703;28;20484;-76
2022/12/10 06:25:14;;;;;;;23.02;9.43;;;;;;;1.25;100.00;99804.19;5020376;28;20041;-75
2022/12/10 06:27:39;;;;;;;24.05;10.02;;;;;;;1.26;100.00;99800.75;4998817;28;20092;-76
2022/12/10 06:30:05;;;;;;;21.30;9.85;;;;;;;1.29;100.00;99808.59;5019911;28;20100;-76
2022/12/10 06:32:31;;;;;;;21.88;9.40;;;;;;;1.27;100.00;99809.44;5022302;28;20475;-76
2022/12/10 06:34:56;;;;;;;21.85;9.20;;;;;;;1.22;100.00;99811.94;5020949;28;20101;-76
2022/12/10 06:37:22;;;;;;;18.65;9.25;;;;;;;1.16;100.00;99822.22;5016840;28;20068;-75
2022/12/10 06:39:47;;;;;;;21.08;8.82;;;;;;;1.11;100.00;99816.03;5018937;28;20060;-76
2022/12/10 06:42:12;;;;;;;20.05;8.38;;;;;;;1.08;100.00;99815.97;5022598;28;20033;-75
2022/12/10 06:44:37;;;;;;;22.17;9.50;;;;;;;1.14;100.00;99816.09;5019433;28;20026;-75
2022/12/10 06:47:03;;;;;;;22.27;8.98;;;;;;;1.18;100.00;99817.94;5022166;28;20484;-76
2022/12/10 06:49:28;;;;;;;21.98;10.05;;;;;;;1.18;100.00;99823.13;5020259;28;20038;-75
2022/12/10 06:51:53;;;;;;;24.10;9.93;;;;;;;1.15;100.00;99825.63;5021250;28;20488;-75
2022/12/10 06:54:19;;;;;;;23.00;10.23;;;;;;;1.15;100.00;99827.38;5008778;28;20034;-75
2022/12/10 06:56:44;;;;;;;24.40;10.85;;;;;;;1.12;100.00;99828.19;5009027;28;20063;-76
2022/12/10 06:59:09;;;;;;;25.38;11.05;;;;;;;1.16;100.00;99835.22;5020810;28;20038;-76
2022/12/10 07:01:37;;;;;;;24.23;10.65;;;;;;;1.18;100.00;99823.13;5024474;28;20041;-75
2022/12/10 07:04:03;;;;;;;22.00;10.55;;;;;;;1.19;100.00;99829.19;5020361;28;20057;-75
2022/12/10 07:06:31;;;;;;;19.58;10.10;;;;;;;1.26;100.00;99833.69;5022732;28;20034;-75
2022/12/10 07:08:56;;;;;;;22.13;10.88;;;;;;;1.23;100.00;99833.59;5009910;28;20038;-76
2022/12/10 07:11:24;;;;;;;23.35;10.90;;;;;;;1.20;100.00;99833.53;5016914;28;20049;-76
2022/12/10 07:13:50;;;;;;;20.85;10.13;;;;;;;1.21;100.00;99838.78;5015982;28;20038;-76
2022/12/10 07:16:25;;;;;;;22.83;10.35;;;;;;;1.15;100.00;99836.03;5014747;28;20092;-76
2022/12/10 07:18:50;;;;;;;24.50;11.10;;;;;;;1.21;100.00;99845.72;5019454;28;20042;-76
2022/12/10 07:21:20;;;;;;;23.50;10.95;;;;;;;1.22;100.00;99840.53;5018021;28;20045;-76
2022/12/10 07:23:46;;;;;;;26.23;11.77;;;;;;;1.17;100.00;99838.69;5011233;28;20037;-76
2022/12/10 07:26:11;;;;;;;23.98;11.20;;;;;;;1.20;100.00;99841.34;5029215;28;20036;-76
2022/12/10 07:28:37;;;;;;;26.85;12.48;;;;;;;1.19;100.00;99853.47;5023976;28;20077;-76
2022/12/10 07:31:07;;;;;;;29.45;12.32;;;;;;;1.24;100.00;99848.34;5021740;28;20064;-76
2022/12/10 07:33:32;;;;;;;24.77;12.40;;;;;;;1.22;100.00;99850.91;4991141;28;20049;-76
2022/12/10 07:35:58;;;;;;;24.88;12.93;;;;;;;1.21;100.00;99854.38;5003867;28;20073;-76
2022/12/10 07:38:24;;;;;;;27.33;12.82;;;;;;;1.21;100.00;99858.69;5025382;28;20116;-76
2022/12/10 07:40:50;;;;;;;29.75;12.85;;;;;;;1.19;100.00;99850.00;5020147;28;20165;-76
2022/12/10 07:43:16;;;;;;;26.92;13.00;;;;;;;1.21;100.00;99849.19;5020314;28;20033;-76
2022/12/10 07:45:41;;;;;;;26.05;12.95;;;;;;;1.12;100.00;99854.16;5024717;28;20036;-76
2022/12/10 07:48:06;;;;;;;25.88;12.68;;;;;;;1.11;100.00;99859.34;5016548;28;20092;-76
2022/12/10 07:50:32;;;;;;;24.58;12.57;;;;;;;1.07;100.00;99855.78;5016744;28;20115;-76
2022/12/10 07:52:57;;;;;;;29.17;13.88;;;;;;;1.05;100.00;99857.50;5020006;28;20034;-76
2022/12/10 07:55:23;;;;;;;22.98;11.45;;;;;;;1.05;100.00;99865.31;5020716;28;20091;-76
2022/12/10 07:57:48;;;;;;;21.38;9.30;;;;;;;0.95;100.00;99868.53;5020237;28;20109;-76
2022/12/10 08:00:14;;;;;;;18.70;9.73;;;;;;;1.01;100.00;99866.06;5020516;28;20032;-76
2022/12/10 08:02:39;;;;;;;23.83;11.00;;;;;;;1.04;100.00;99871.31;5022845;28;20057;-76
2022/12/10 08:05:05;;;;;;;19.17;10.57;;;;;;;1.14;100.00;99862.88;5024083;28;20033;-76
2022/12/10 08:07:30;;;;;;;24.73;11.70;;;;;;;1.19;100.00;99871.66;5020953;28;20116;-76
2022/12/10 08:09:55;;;;;;;24.80;12.48;;;;;;;1.06;100.00;99867.91;5021563;28;20025;-76
2022/12/10 08:12:21;;;;;;;23.17;11.88;;;;;;;1.02;100.00;99868.72;5007268;28;20403;-76
2022/12/10 08:14:46;;;;;;;21.50;10.95;;;;;;;1.07;100.00;99866.19;5022851;28;20404;-76
2022/12/10 08:17:11;;;;;;;23.77;12.23;;;;;;;0.99;100.00;99868.63;5000951;28;20050;-76
2022/12/10 08:19:37;;;;;;;20.92;11.18;;;;;;;1.01;100.00;99877.31;5002513;28;20179;-76
2022/12/10 08:22:02;;;;;;;23.27;11.88;;;;;;;0.87;100.00;99868.38;5024130;28;20087;-75
2022/12/10 08:24:27;;;;;;;20.73;10.55;;;;;;;0.92;100.00;99868.44;5016994;28;20037;-76
2022/12/10 08:26:52;;;;;;;22.30;11.38;;;;;;;0.86;100.00;99883.09;5022506;28;20091;-76
2022/12/10 08:29:18;;;;;;;22.52;11.43;;;;;;;0.72;100.00;99888.78;5022998;28;20033;-76
2022/12/10 08:31:43;;;;;;;22.50;12.18;;;;;;;0.64;100.00;99878.22;5023792;28;20066;-76
2022/12/10 08:34:14;;;;;;;21.77;11.90;;;;;;;0.65;100.00;99872.19;5014054;28;20061;-76
2022/12/10 08:36:41;;;;;;;23.08;11.55;;;;;;;0.58;100.00;99881.56;5008846;28;20065;-76
2022/12/10 08:39:06;;;;;;;22.67;11.38;;;;;;;0.70;100.00;99880.97;5014459;28;20030;-76
2022/12/10 08:41:32;;;;;;;19.63;10.00;;;;;;;0.73;100.00;99881.03;5021138;28;20032;-75
2022/12/10 08:43:57;;;;;;;21.40;11.10;;;;;;;0.85;100.00;99886.50;5022824;28;20543;-76
2022/12/10 08:46:23;;;;;;;21.50;10.90;;;;;;;0.77;100.00;99882.88;5023686;28;20458;-75
2022/12/10 08:48:48;;;;;;;22.10;11.68;;;;;;;0.92;100.00;99878.84;5020898;28;20044;-75
2022/12/10 08:51:16;;;;;;;21.40;10.88;;;;;;;1.07;100.00;99881.78;5023370;28;20037;-75
2022/12/10 08:53:42;;;;;;;18.80;9.75;;;;;;;1.24;100.00;99880.44;5026412;28;20388;-75
2022/12/10 08:56:07;;;;;;;23.17;12.18;;;;;;;1.27;100.00;99888.28;5002749;28;20095;-76
2022/12/10 08:58:33;;;;;;;21.00;11.57;;;;;;;1.23;100.00;99890.78;5021040;28;20411;-75
2022/12/10 09:00:59;;;;;;;19.73;9.45;;;;;;;1.21;100.00;99889.91;5023954;28;20124;-75
2022/12/10 09:03:24;;;;;;;21.83;10.98;;;;;;;1.17;100.00;99882.88;5003196;28;20034;-75
2022/12/10 09:05:50;;;;;;;19.20;9.88;;;;;;;1.23;100.00;99895.97;5023311;28;20146;-76
2022/12/10 09:08:15;;;;;;;21.50;10.48;;;;;;;1.27;100.00;99897.81;5021839;28;20078;-75
2022/12/10 09:10:41;;;;;;;14.77;7.45;;;;;;;1.35;100.00;99897.97;5019960;28;20037;-76
2022/12/10 09:13:07;;;;;;;21.90;10.85;;;;;;;1.32;100.00;99898.78;5001194;28;20129;-75
2022/12/10 09:15:32;;;;;;;9.48;5.05;;;;;;;1.40;100.00;99896.34;5023284;28;20462;-75
2022/12/10 09:17:57;;;;;;;26.05;14.43;;;;;;;1.25;100.00;99897.75;5020399;28;20053;-75
2022/12/10 09:20:23;;;;;;;20.00;13.30;;;;;;;1.21;100.00;99901.16;5020688;28;20408;-76
2022/12/10 09:22:48;;;;;;;1999.90;999.90;;;;;;;1.35;100.00;99900.56;5019073;28;20030;-75
2022/12/10 09:25:16;;;;;;;1999.90;999.90;;;;;;;1.29;100.00;99898.72;5019742;28;20037;-75
2022/12/10 09:27:42;;;;;;;1999.90;999.90;;;;;;;1.35;100.00;99895.38;5022440;28;20041;-75
2022/12/10 09:30:08;;;;;;;1999.90;999.90;;;;;;;1.38;100.00;99898.03;5020483;28;20523;-74
2022/12/10 09:32:33;;;;;;;1999.90;999.90;;;;;;;1.52;100.00;99896.59;5021443;28;20057;-75
2022/12/10 09:34:59;;;;;;;1999.90;999.90;;;;;;;1.35;100.00;99898.84;5021952;28;20091;-75
2022/12/10 09:37:24;;;;;;;1999.90;999.90;;;;;;;1.23;100.00;99894.28;5020954;28;20041;-75
2022/12/10 09:39:49;;;;;;;1999.90;999.90;;;;;;;1.38;100.00;99900.63;5017700;28;20030;-74
2022/12/10 09:42:34;;;;;;;1999.90;999.90;;;;;;;1.57;100.00;99900.16;5020663;28;20104;-75
2022/12/10 09:45:12;;;;;;;1999.90;999.90;;;;;;;1.63;100.00;99891.63;5019330;28;20069;-75
2022/12/10 09:48:10;;;;;;;1999.90;999.90;;;;;;;1.51;99.04;99894.84;5018017;28;20518;-75
2022/12/10 09:50:51;;;;;;;1999.90;999.90;;;;;;;1.53;100.00;99890.53;5018042;28;20034;-76
2022/12/10 09:53:20;;;;;;;1999.90;999.90;;;;;;;1.58;100.00;99895.84;5017054;28;20038;-75
2022/12/10 09:55:48;;;;;;;1999.90;999.90;;;;;;;1.66;100.00;99889.94;5022086;28;20455;-75
2022/12/10 09:58:18;;;;;;;1999.90;999.90;;;;;;;1.55;99.67;99891.47;5019289;28;20065;-75
2022/12/10 10:00:47;;;;;;;1999.90;999.90;;;;;;;1.61;100.00;99886.38;5023208;28;20037;-75
2022/12/10 10:03:14;;;;;;;1999.90;999.90;;;;;;;1.71;100.00;99883.09;5016492;28;20038;-74
2022/12/10 10:05:42;;;;;;;1999.90;999.90;;;;;;;1.80;100.00;99897.13;5021379;28;20539;-76
2022/12/10 10:08:14;;;;;;;1999.90;999.90;;;;;;;1.66;98.52;99897.75;5021110;28;21086;-76
2022/12/10 10:10:40;;;;;;;;;;;;;;;1.57;98.99;99892.34;5019726;28;20041;-76
2022/12/10 10:13:08;;;;;;;1999.90;999.90;;;;;;;1.53;100.00;99894.03;5017255;28;19920;-76
2022/12/10 10:15:37;;;;;;;1999.90;999.90;;;;;;;1.62;100.00;99884.63;5022116;28;20037;-76
2022/12/10 10:18:22;;;;;;;1999.90;999.90;;;;;;;1.74;100.00;99877.09;5017410;28;20480;-76
2022/12/10 10:20:49;;;;;;;1999.90;999.90;;;;;;;1.84;99.47;99883.34;5020411;28;20068;-76
2022/12/10 10:23:15;;;;;;;1999.90;999.90;;;;;;;1.82;99.11;99879.81;5013991;28;20034;-76
2022/12/10 10:25:41;;;;;;;1999.90;999.90;;;;;;;1.67;99.73;99881.28;5017890;28;20033;-76
2022/12/10 10:28:12;;;;;;;1999.90;999.90;;;;;;;1.79;100.00;99884.97;5018380;28;20092;-76
2022/12/10 10:30:42;;;;;;;1999.90;999.90;;;;;;;1.68;98.59;99877.84;5003626;28;20045;-76
2022/12/10 10:33:10;;;;;;;1999.90;999.90;;;;;;;1.63;99.89;99879.47;5020428;28;20484;-76
2022/12/10 10:35:49;;;;;;;1999.90;999.90;;;;;;;1.59;99.88;99893.25;5016167;28;20042;-76
2022/12/10 10:38:25;;;;;;;1999.90;999.90;;;;;;;1.61;100.00;99882.91;5019110;28;20041;-76
2022/12/10 10:40:56;;;;;;;1999.90;999.90;;;;;;;1.72;100.00;99881.38;5016756;28;20041;-75
2022/12/10 10:43:39;;;;;;;1999.90;999.90;;;;;;;1.63;100.00;99883.81;5020446;28;20560;-76
2022/12/10 10:46:12;;;;;;;1999.90;999.90;;;;;;;1.70;99.57;99891.75;5017464;28;20041;-77
2022/12/10 10:48:38;;;;;;;1999.90;999.90;;;;;;;1.65;99.62;99883.00;5020089;28;20129;-76
2022/12/10 10:51:12;;;;;;;1999.90;999.90;;;;;;;1.75;99.86;99878.81;5022682;28;20504;-76
2022/12/10 10:53:37;;;;;;;1999.90;999.90;;;;;;;1.86;99.73;99881.63;5013680;28;20404;-76
2022/12/10 10:56:16;;;;;;;1999.90;999.90;;;;;;;1.81;98.75;99878.06;5020911;28;20052;-76
2022/12/10 10:58:49;;;;;;;1999.90;999.90;;;;;;;1.70;99.76;99878.75;5013429;28;20030;-75
2022/12/10 11:01:15;;;;;;;1999.90;999.90;;;;;;;1.82;99.40;99880.69;5025064;28;20068;-76
2022/12/10 11:03:48;;;;;;;1999.90;999.90;;;;;;;1.69;99.54;99878.72;5022398;28;20074;-76
2022/12/10 11:06:13;;;;;;;1999.90;999.90;;;;;;;1.61;99.49;99875.97;5015003;28;20392;-76
2022/12/10 11:08:43;;;;;;;1999.90;999.90;;;;;;;1.58;99.94;99870.72;5022481;28;20029;-76
2022/12/10 11:11:31;;;;;;;1999.90;999.90;;;;;;;1.57;100.00;99868.94;5021491;28;20400;-76
2022/12/10 11:14:14;;;;;;;1999.90;999.90;;;;;;;1.67;100.00;99864.78;5015770;28;20489;-77
2022/12/10 11:16:40;;;;;;;1999.90;999.90;;;;;;;1.72;100.00;99864.03;5012471;28;20516;-77
2022/12/10 11:19:19;;;;;;;1999.90;999.90;;;;;;;1.81;100.00;99865.03;5024312;28;20049;-76
2022/12/10 11:21:44;;;;;;;1999.90;999.90;;;;;;;1.86;100.00;99873.81;5019762;28;20124;-76
2022/12/10 11:24:11;;;;;;;1999.90;999.90;;;;;;;1.76;99.02;99859.78;5018076;28;20125;-77
2022/12/10 11:26:50;;;;;;;1999.90;999.90;;;;;;;1.65;99.93;99874.28;5018995;28;20057;-76
2022/12/10 11:29:43;;;;;;;1999.90;999.90;;;;;;;1.74;100.00;99874.47;5021562;28;20041;-76